East Angus, Canada
Current Conditions -  °F | °C
As of 5:38 AM on Saturday 25 Oct 2014 (Local Time) from CYSC Reporting Station
Scattered Clouds Scattered Clouds  
Wind Chill: 30°   Ceiling: Unl
Heat Index: 30°   Visibility: 9mi
Dew Point: 30°   Wind: 0mph
Humidity: 100%   Direction: NA
Pressure: 29.73"   Gusts: NA
Location:  45.48°N, 71.67°W
Report Text: CYSC 250938Z AUTO 00000KT 9SM SCT140 M01/M01 A2973 RMK SLP078
Loading
Personal Weather Stations






























Interactive Weather Map
Tropical Storm Tracking
New forecast layout! Learn more

10-Day Weather Forecast

Advertisements
Track Severe Weather on mobile